This is the latest recevied weather packets stored in our database for station/object EA3BNF-1. If no packets are shown the sender has not sent any weather packets the latest 10 day(s).
| Time | Temp. | Humidity | Pressure | Rain* | Wind** | Luminosity | Snow |
|---|---|---|---|---|---|---|---|
| 1777934824 | 15° C | 73% | 1012.6 hPa | - | - | - | - |
| 1777934169 | 15° C | 73% | 1012.6 hPa | - | - | - | - |
| 1777933513 | 15° C | 73% | 1012.6 hPa | - | - | - | - |
| 1777932858 | 15° C | 72% | 1012.5 hPa | - | - | - | - |
| 1777932202 | 15° C | 72% | 1012.4 hPa | - | - | - | - |
| 1777931547 | 15.56° C | 71% | 1012.4 hPa | - | - | - | - |
| 1777930891 | 15.56° C | 72% | 1012.5 hPa | - | - | - | - |
| 1777930235 | 15.56° C | 72% | 1012.6 hPa | - | - | - | - |
| 1777929580 | 15.56° C | 71% | 1012.7 hPa | - | - | - | - |
| 1777928924 | 16.11° C | 71% | 1012.6 hPa | - | - | - | - |
| 1777928269 | 16.11° C | 72% | 1012.6 hPa | - | - | - | - |
| 1777927613 | 16.67° C | 70% | 1012.7 hPa | - | - | - | - |
| 1777926957 | 16.67° C | 71% | 1012.5 hPa | - | - | - | - |
| 1777926300 | 16.67° C | 69% | 1012.4 hPa | - | - | - | - |
| 1777925644 | 17.22° C | 69% | 1012.3 hPa | - | - | - | - |
| 1777924987 | 17.22° C | 69% | 1012.2 hPa | - | - | - | - |
| 1777924331 | 17.22° C | 70% | 1012.1 hPa | - | - | - | - |
| 1777923675 | 17.22° C | 70% | 1012 hPa | - | - | - | - |
| 1777923020 | 17.22° C | 72% | 1012 hPa | - | - | - | - |
| 1777922364 | 17.78° C | 71% | 1012.1 hPa | - | - | - | - |
| 1777921708 | 18.89° C | 68% | 1012.1 hPa | - | - | - | - |
| 1777921053 | 18.89° C | 69% | 1012 hPa | - | - | - | - |
| 1777920397 | 19.44° C | 69% | 1012.1 hPa | - | - | - | - |
| 1777919741 | 19.44° C | 68% | 1011.8 hPa | - | - | - | - |
| 1777919086 | 20° C | 67% | 1011.8 hPa | - | - | - | - |
* Rain since midnight (hover to see other rain measurements)
** Current wind speed in m/s (hover to see current wind gust speed)